Hovedside
METAR-TAF:

METAR-TAF

Lufthavner :

Kosrae, Mikronesia

breddegrad: 05-21N, lengdegrad: 162-57E, høyde over havet: 3 m

Gjeldene værobservasjon

Denne rapporten ble laget for 1 time og 24 minutter siden, klokken 02:50 UTC
Vind 11 kt fra Øst-sørøst
Temperatur 31°C
Luftfuktighet 66%
Trykk 1007 hPa
Sikt: 16.1 km
Brutte skyer i en høyde av 2200 ft
Brutte skyer i en høyde av 13000 ft
Brutte skyer i en høyde av 30000 ft

METAR: PTSA 200250Z 11011KT 10SM BKN022 BKN130 BKN300 31/24 A2974

Tid: 15:14 (04:14 UTC)

Varsel

Denne rapporten ble laget for 4 timer og 36 minutter siden, klokken 23:38 UTC
Varsel gyldig fra 20. klokken 00 UTC til 20. klokken 24 UTC
Vind 12 kt fra Øst
Sikt: 10 km
Spredte skyer i en høyde av 2000 ft

TAF: PTSA 192338Z 2000/2024 10012KT P6SM SCT020

Værobservasjoner og værvarsel for over 4000 flyplasser (METAR- og TAF-rapporter).

Tilgjengelige stasjoner er representert av de røde og gule prikkene på kartet.

Hold musepekeren over prikken for å se navnet på stasjonen.

Klikk så for å se værobservasjoner og -varsler.

For å forandre kartet kan du klikke på den grønne knappen med svart kryss for å zoome inn, på den grønne knappen med strek for å zoome ut, eller på de grønne pilene for å se tilstøtende kart.


METAR-TAF: